Time;durP1;ratioP1;P1;durP2;ratioP2;P2;SDS_P1;SDS_P2;PMS_P1;PMS_P2;Temp;Humidity;BMP_temperature;BMP_pressure;BME280_temperature;BME280_humidity;BME280_pressure;Samples;Min_cycle;Max_cycle;Signal;HPM_P1;HPM_P2
2022/10/22 00:00:17;;;;;;;16.25;11.93;;;;;;;19.03;68.81;100705.59;4970662;28;99876;-68
2022/10/22 00:02:44;;;;;;;19.33;12.15;;;;;;;18.91;69.49;100727.88;4971275;28;99102;-67
2022/10/22 00:05:11;;;;;;;18.73;12.23;;;;;;;18.70;70.01;100731.09;4974170;28;97038;-67
2022/10/22 00:07:37;;;;;;;18.70;13.10;;;;;;;18.91;69.44;100727.88;4971941;28;97116;-67
2022/10/22 00:10:05;;;;;;;20.02;12.25;;;;;;;18.92;69.19;100718.88;4972253;28;98943;-66
2022/10/22 00:12:33;;;;;;;18.75;12.73;;;;;;;18.76;69.59;100724.47;4973955;28;99064;-67
2022/10/22 00:15:00;;;;;;;25.83;14.05;;;;;;;18.68;69.96;100733.03;4970584;28;96720;-67
2022/10/22 00:17:26;;;;;;;15.80;11.95;;;;;;;18.73;70.07;100731.84;4974823;28;97055;-68
2022/10/22 00:19:52;;;;;;;20.27;12.77;;;;;;;18.77;69.81;100733.34;4971533;28;99226;-68
2022/10/22 00:22:19;;;;;;;21.83;12.95;;;;;;;19.16;68.52;100727.88;4971933;28;98570;-66
2022/10/22 00:24:45;;;;;;;17.88;13.23;;;;;;;19.02;69.09;100739.56;4971446;28;97114;-67
2022/10/22 00:27:13;;;;;;;20.67;13.10;;;;;;;19.00;68.89;100727.22;4972224;28;96985;-67
2022/10/22 00:29:41;;;;;;;20.77;12.82;;;;;;;19.02;68.97;100710.09;4976341;28;99039;-67
2022/10/22 00:32:07;;;;;;;21.98;11.95;;;;;;;18.99;68.52;100698.72;4969841;28;99037;-67
2022/10/22 00:34:34;;;;;;;15.05;11.45;;;;;;;18.98;69.06;100708.59;4972372;28;97188;-67
2022/10/22 00:37:00;;;;;;;18.88;12.18;;;;;;;19.21;68.17;100703.41;4971823;28;96968;-67
2022/10/22 00:39:28;;;;;;;17.23;11.85;;;;;;;19.06;68.76;100703.56;4971217;28;99920;-67
2022/10/22 00:41:56;;;;;;;16.67;11.45;;;;;;;18.89;69.08;100698.53;4971424;28;98761;-66
2022/10/22 00:45:14;;;;;;;19.67;12.20;;;;;;;18.96;68.66;100696.28;4971641;28;97125;-67
2022/10/22 00:47:43;;;;;;;;;;;;;;;19.05;68.79;100698.28;4874885;28;96897;-67
2022/10/22 00:50:14;;;;;;;20.23;11.95;;;;;;;19.32;67.16;100704.34;4873141;28;99687;-67
2022/10/22 00:52:40;;;;;;;17.80;12.77;;;;;;;19.01;68.37;100699.50;4914795;28;99047;-68
2022/10/22 00:55:08;;;;;;;19.85;12.18;;;;;;;18.98;68.20;100703.22;4971317;28;97522;-67
2022/10/22 00:57:36;;;;;;;22.02;13.48;;;;;;;19.00;68.38;100719.19;4971563;28;96942;-67
2022/10/22 01:00:03;;;;;;;17.63;12.90;;;;;;;18.82;68.74;100718.69;4970838;28;99234;-67
2022/10/22 01:02:30;;;;;;;17.52;12.75;;;;;;;18.86;68.65;100724.66;4970089;28;99023;-67
2022/10/22 01:04:57;;;;;;;17.25;12.75;;;;;;;18.91;68.58;100725.19;4968427;28;97348;-68
2022/10/22 01:07:25;;;;;;;19.40;12.88;;;;;;;18.80;69.24;100731.31;4977218;28;96884;-68
2022/10/22 01:10:02;;;;;;;17.02;13.32;;;;;;;18.77;69.00;100736.91;4974986;28;99151;-68
2022/10/22 01:12:39;;;;;;;22.08;12.98;;;;;;;18.71;69.49;100731.94;4977182;28;99266;-67
2022/10/22 01:15:16;;;;;;;19.45;13.98;;;;;;;18.48;70.63;100740.66;4975696;28;96688;-67
2022/10/22 01:17:51;;;;;;;24.10;14.45;;;;;;;18.79;69.58;100742.97;4974836;28;96919;-67
2022/10/22 01:20:38;;;;;;;24.42;14.40;;;;;;;18.79;69.67;100745.66;4973861;28;98957;-68
2022/10/22 01:23:13;;;;;;;;;;;;;;;18.82;69.60;100729.38;4981524;28;97089;-67
2022/10/22 01:25:49;;;;;;;23.65;14.48;;;;;;;18.93;68.54;100721.44;4973812;28;97214;-68
2022/10/22 01:28:26;;;;;;;26.15;14.13;;;;;;;18.71;69.43;100722.09;4974097;28;96822;-68
2022/10/22 01:30:57;;;;;;;22.05;14.52;;;;;;;18.60;70.25;100721.97;4978925;28;99061;-68
2022/10/22 01:33:26;;;;;;;23.00;14.25;;;;;;;18.63;69.77;100713.75;4975837;28;99105;-68
2022/10/22 01:35:53;;;;;;;23.00;14.57;;;;;;;18.77;68.94;100715.47;4973138;28;96805;-68
2022/10/22 01:38:23;;;;;;;20.55;14.32;;;;;;;18.49;70.13;100716.50;4975384;28;97233;-66
2022/10/22 01:40:51;;;;;;;24.67;14.82;;;;;;;18.87;68.84;100713.84;4974008;28;98239;-67
2022/10/22 01:43:17;;;;;;;25.80;15.35;;;;;;;18.80;68.95;100717.06;4977178;28;100214;-67
2022/10/22 01:45:46;;;;;;;23.88;14.50;;;;;;;18.91;68.93;100706.44;4974135;28;97178;-67
2022/10/22 01:48:28;;;;;;;26.85;14.55;;;;;;;19.11;67.73;100713.94;4973621;28;96810;-67
2022/10/22 01:51:08;;;;;;;19.67;14.07;;;;;;;18.65;69.32;100718.97;4969498;28;100450;-67
2022/10/22 01:53:44;;;;;;;23.02;14.18;;;;;;;18.84;68.78;100721.25;4974808;28;99107;-67
2022/10/22 01:56:25;;;;;;;21.60;14.38;;;;;;;18.82;68.83;100717.81;4972448;28;96798;-67
2022/10/22 01:58:59;;;;;;;21.00;13.80;;;;;;;18.84;68.55;100721.25;4972613;28;96946;-67
2022/10/22 02:01:34;;;;;;;21.90;13.57;;;;;;;18.61;69.52;100726.38;4972085;28;98487;-67
2022/10/22 02:04:10;;;;;;;25.73;14.82;;;;;;;18.63;69.08;100729.81;4969669;28;98191;-67
2022/10/22 02:06:38;;;;;;;19.58;14.07;;;;;;;18.47;69.85;100726.44;4973438;28;96848;-67
2022/10/22 02:09:07;;;;;;;20.73;13.88;;;;;;;18.44;69.45;100729.34;4973770;28;97839;-68
2022/10/22 02:11:34;;;;;;;22.55;13.90;;;;;;;18.59;69.42;100736.31;4975389;28;98974;-68
2022/10/22 02:14:04;;;;;;;24.48;13.90;;;;;;;18.76;68.78;100737.00;4973174;28;99249;-68
2022/10/22 02:16:34;;;;;;;19.98;13.38;;;;;;;18.64;69.15;100746.72;4974920;28;97492;-67
2022/10/22 02:19:15;;;;;;;22.02;13.35;;;;;;;18.68;68.88;100734.84;4969300;28;96980;-67
2022/10/22 02:21:42;;;;;;;24.15;14.10;;;;;;;18.96;67.94;100733.78;4968006;28;99001;-67
2022/10/22 02:24:08;;;;;;;23.73;14.32;;;;;;;18.59;69.24;100725.63;4965502;28;98822;-67
2022/10/22 02:26:39;;;;;;;20.85;13.52;;;;;;;18.82;68.30;100729.38;4971143;28;97050;-67
2022/10/22 02:29:13;;;;;;;24.63;14.45;;;;;;;18.71;68.46;100721.22;4968422;28;96835;-67
2022/10/22 02:31:45;;;;;;;23.30;13.73;;;;;;;18.69;68.46;100726.72;4968054;28;99638;-67
2022/10/22 02:34:17;;;;;;;19.65;13.25;;;;;;;18.66;68.32;100726.91;4972983;28;98906;-67
2022/10/22 02:36:44;;;;;;;19.67;13.20;;;;;;;18.77;68.15;100726.19;4973252;28;96785;-70
2022/10/22 02:39:12;;;;;;;18.60;13.55;;;;;;;18.66;68.72;100723.38;4972873;28;96924;-67
2022/10/22 02:41:38;;;;;;;18.02;13.82;;;;;;;18.44;69.28;100726.66;4973241;28;99301;-67
2022/10/22 02:44:09;;;;;;;18.70;13.18;;;;;;;18.51;69.06;100722.56;4972969;28;98936;-67
2022/10/22 02:46:36;;;;;;;20.30;12.88;;;;;;;18.62;68.62;100733.44;4972887;28;97569;-67
2022/10/22 02:49:02;;;;;;;23.13;14.10;;;;;;;18.40;69.38;100735.84;4977723;28;96777;-67
2022/10/22 02:51:30;;;;;;;20.80;12.77;;;;;;;18.61;68.95;100722.84;4980684;28;98978;-68
2022/10/22 02:53:57;;;;;;;19.30;13.35;;;;;;;18.59;68.28;100738.13;4972589;28;98841;-68
2022/10/22 02:56:23;;;;;;;23.05;13.85;;;;;;;18.35;69.39;100740.66;4972962;28;97141;-68
2022/10/22 02:58:50;;;;;;;21.10;13.48;;;;;;;18.24;69.65;100745.88;4971283;28;97940;-67
2022/10/22 03:01:16;;;;;;;19.50;13.23;;;;;;;18.34;69.67;100749.63;4972354;28;99234;-68
2022/10/22 03:03:42;;;;;;;18.67;13.68;;;;;;;18.33;69.49;100743.41;4969052;28;99383;-67
2022/10/22 03:06:09;;;;;;;19.08;13.13;;;;;;;18.62;68.47;100736.13;4975801;28;97248;-67
2022/10/22 03:08:36;;;;;;;21.10;13.55;;;;;;;18.46;68.62;100727.38;4973397;28;97029;-68
2022/10/22 03:11:03;;;;;;;21.65;12.93;;;;;;;18.57;68.41;100721.34;4974509;28;99359;-66
2022/10/22 03:13:29;;;;;;;22.23;12.93;;;;;;;18.71;67.65;100722.09;4975011;28;98942;-68
2022/10/22 03:15:56;;;;;;;21.40;13.02;;;;;;;18.72;68.05;100722.94;4973166;28;96693;-68
2022/10/22 03:18:22;;;;;;;19.92;13.10;;;;;;;18.84;67.41;100719.41;4975383;28;96772;-67
2022/10/22 03:20:48;;;;;;;19.67;12.85;;;;;;;18.69;67.98;100712.47;4967374;28;102827;-67
2022/10/22 03:23:18;;;;;;;16.55;12.20;;;;;;;18.90;67.24;100723.50;4965313;28;100762;-67
2022/10/22 03:25:49;;;;;;;19.63;12.32;;;;;;;18.67;67.79;100714.38;4965256;28;97822;-67
2022/10/22 03:28:18;;;;;;;20.98;13.93;;;;;;;18.53;68.08;100717.13;4964231;28;98928;-68
2022/10/22 03:30:44;;;;;;;21.30;13.02;;;;;;;18.64;68.01;100719.97;4963964;28;99019;-68
2022/10/22 03:33:10;;;;;;;16.45;12.18;;;;;;;18.53;67.69;100715.31;4971021;28;98814;-68
2022/10/22 03:35:44;;;;;;;21.50;13.52;;;;;;;18.56;67.67;100720.50;4968871;28;97063;-68
2022/10/22 03:38:10;;;;;;;16.95;12.40;;;;;;;18.49;68.18;100724.53;4961050;28;98742;-68
2022/10/22 03:40:37;;;;;;;21.88;12.70;;;;;;;18.43;68.51;100724.94;4965025;28;99305;-67
2022/10/22 03:43:04;;;;;;;17.80;12.82;;;;;;;18.37;68.39;100728.03;4965897;28;99851;-67
2022/10/22 03:45:31;;;;;;;20.70;12.90;;;;;;;18.17;68.80;100721.34;4976439;28;96810;-67
2022/10/22 03:47:57;;;;;;;20.27;11.90;;;;;;;18.43;68.14;100727.63;4966601;28;97081;-67
2022/10/22 03:50:23;;;;;;;17.38;12.65;;;;;;;18.56;67.99;100728.53;4970225;28;99077;-68
2022/10/22 03:52:50;;;;;;;19.48;12.77;;;;;;;18.64;66.92;100731.50;4966057;28;99432;-68
2022/10/22 03:55:16;;;;;;;17.23;12.30;;;;;;;18.18;69.40;100728.41;4969856;28;97094;-67
2022/10/22 03:57:42;;;;;;;18.30;12.02;;;;;;;18.56;67.68;100728.53;4965120;28;98713;-67
2022/10/22 04:00:11;;;;;;;17.35;12.30;;;;;;;18.64;66.94;100731.50;4965679;28;98979;-68
2022/10/22 04:02:37;;;;;;;21.63;12.38;;;;;;;18.44;67.81;100734.69;4964323;28;98921;-68
2022/10/22 04:05:04;;;;;;;18.48;12.40;;;;;;;18.54;67.44;100738.44;4972099;28;97285;-68
2022/10/22 04:07:30;;;;;;;16.15;11.75;;;;;;;18.33;68.18;100740.75;4972812;28;98535;-68
2022/10/22 04:09:57;;;;;;;16.63;12.77;;;;;;;18.21;68.44;100743.38;4972430;28;99265;-68
2022/10/22 04:12:23;;;;;;;21.52;12.07;;;;;;;18.23;69.26;100738.81;4968144;28;97933;-67
2022/10/22 04:14:49;;;;;;;17.48;12.15;;;;;;;18.35;68.18;100751.34;4969416;28;96853;-67
2022/10/22 04:17:17;;;;;;;18.58;12.68;;;;;;;18.28;68.44;100755.41;4970986;28;96849;-68
2022/10/22 04:19:44;;;;;;;17.17;11.63;;;;;;;18.18;69.20;100757.81;4966546;28;99518;-67
2022/10/22 04:22:10;;;;;;;18.45;12.20;;;;;;;18.47;68.08;100769.25;4974125;28;97824;-68
2022/10/22 04:24:36;;;;;;;20.30;12.55;;;;;;;18.29;68.48;100775.84;4972194;28;96939;-68
2022/10/22 04:27:03;;;;;;;18.00;11.85;;;;;;;18.31;68.52;100777.44;4967838;28;96908;-68
2022/10/22 04:29:30;;;;;;;18.25;12.43;;;;;;;18.28;68.83;100776.78;4969211;28;99011;-67
2022/10/22 04:31:56;;;;;;;19.48;12.35;;;;;;;18.46;68.20;100772.88;4971141;28;98897;-67
2022/10/22 04:34:27;;;;;;;18.42;12.02;;;;;;;18.40;68.27;100772.44;4970320;28;96798;-67
2022/10/22 04:36:53;;;;;;;19.23;12.80;;;;;;;18.61;67.61;100771.88;4972408;28;96863;-67
2022/10/22 04:39:19;;;;;;;20.38;12.15;;;;;;;18.54;67.54;100778.56;4971014;28;97722;-67
2022/10/22 04:41:46;;;;;;;16.15;12.18;;;;;;;18.42;68.08;100773.19;4972557;28;98870;-67
2022/10/22 04:44:12;;;;;;;21.55;12.43;;;;;;;18.49;68.13;100767.34;4978249;28;97235;-67
2022/10/22 04:46:38;;;;;;;15.95;11.43;;;;;;;18.36;68.41;100761.09;4978097;28;97043;-67
2022/10/22 04:49:05;;;;;;;20.08;12.15;;;;;;;18.59;67.56;100764.91;4980360;28;99050;-68
2022/10/22 04:51:32;;;;;;;18.80;11.48;;;;;;;18.45;67.74;100756.91;4973568;28;101705;-68
2022/10/22 04:53:59;;;;;;;22.50;12.88;;;;;;;18.48;67.89;100752.22;4974049;28;97491;-68
2022/10/22 04:56:27;;;;;;;16.33;11.43;;;;;;;18.48;67.89;100759.41;4972902;28;97744;-68
2022/10/22 04:58:55;;;;;;;18.08;12.48;;;;;;;18.51;67.56;100749.31;4973332;28;100576;-68
2022/10/22 05:01:23;;;;;;;15.93;11.43;;;;;;;18.21;68.34;100757.63;4973468;28;99026;-68
2022/10/22 05:03:52;;;;;;;17.10;12.32;;;;;;;18.31;68.22;100760.56;4970415;28;97019;-68
2022/10/22 05:06:20;;;;;;;17.73;11.02;;;;;;;18.22;68.31;100761.16;4970708;28;99230;-68
2022/10/22 05:08:48;;;;;;;20.13;11.77;;;;;;;18.33;67.93;100756.78;4974590;28;99479;-68
2022/10/22 05:11:17;;;;;;;19.27;11.77;;;;;;;18.18;68.34;100754.31;4973610;28;98842;-68
2022/10/22 05:13:44;;;;;;;19.40;12.23;;;;;;;18.34;68.16;100757.66;4973789;28;96791;-68
2022/10/22 05:16:10;;;;;;;16.55;11.43;;;;;;;18.53;67.54;100759.94;4972359;28;96860;-67
2022/10/22 05:18:37;;;;;;;18.05;11.68;;;;;;;18.37;67.68;100764.63;4971615;28;99082;-66
2022/10/22 05:21:05;;;;;;;19.80;12.00;;;;;;;18.24;68.22;100764.59;4972409;28;97557;-67
2022/10/22 05:23:31;;;;;;;18.63;11.68;;;;;;;18.06;68.45;100763.97;4972513;28;97139;-66
2022/10/22 05:26:02;;;;;;;19.60;12.13;;;;;;;18.10;68.60;100770.00;4973817;28;96971;-67
2022/10/22 05:28:29;;;;;;;20.98;11.18;;;;;;;18.02;68.69;100767.84;4973284;28;101809;-68
2022/10/22 05:30:56;;;;;;;17.92;12.18;;;;;;;18.22;68.30;100771.84;4977509;28;99093;-68
2022/10/22 05:33:23;;;;;;;20.45;12.27;;;;;;;18.32;68.02;100768.44;4970944;28;97686;-67
2022/10/22 05:35:50;;;;;;;16.98;11.77;;;;;;;18.33;67.74;100774.66;4976063;28;96944;-68
2022/10/22 05:38:16;;;;;;;20.85;12.15;;;;;;;18.42;67.30;100771.38;4976381;28;99312;-67
2022/10/22 05:40:43;;;;;;;19.17;11.48;;;;;;;18.28;67.76;100774.13;4973712;28;100858;-67
2022/10/22 05:43:11;;;;;;;18.10;11.57;;;;;;;18.09;68.38;100773.63;4975920;28;96765;-68
2022/10/22 05:45:37;;;;;;;19.30;12.50;;;;;;;18.08;68.37;100774.59;4970767;28;97355;-67
2022/10/22 05:48:04;;;;;;;17.75;11.77;;;;;;;18.19;67.75;100780.94;4979517;28;98993;-68
2022/10/22 05:50:31;;;;;;;19.95;14.13;;;;;;;18.06;68.49;100781.84;4974970;28;99369;-68
2022/10/22 05:52:57;;;;;;;18.52;12.13;;;;;;;18.28;67.48;100791.03;4978727;28;97614;-67
2022/10/22 05:55:23;;;;;;;19.08;12.20;;;;;;;18.19;67.83;100788.09;4977024;28;97459;-68
2022/10/22 05:57:50;;;;;;;16.50;11.15;;;;;;;18.13;67.69;100789.34;4971749;28;98870;-68
2022/10/22 06:00:18;;;;;;;23.50;12.35;;;;;;;18.12;68.01;100793.00;4976132;28;98885;-68
2022/10/22 06:02:44;;;;;;;17.92;12.70;;;;;;;18.06;68.29;100795.22;4970396;28;98993;-68
2022/10/22 06:05:14;;;;;;;19.95;11.90;;;;;;;17.97;68.04;100794.00;4972115;28;96898;-68
2022/10/22 06:07:40;;;;;;;19.08;12.05;;;;;;;17.73;69.16;100795.59;4973177;28;98108;-68
2022/10/22 06:10:11;;;;;;;16.38;11.93;;;;;;;18.06;68.19;100790.72;4971449;28;98830;-67
2022/10/22 06:12:37;;;;;;;18.38;11.85;;;;;;;18.26;67.50;100786.72;4973482;28;96976;-67
2022/10/22 06:15:04;;;;;;;17.85;12.38;;;;;;;18.16;67.92;100799.00;4978061;28;97017;-67
2022/10/22 06:17:32;;;;;;;15.65;11.00;;;;;;;18.39;67.13;100805.50;4974439;28;99283;-67
2022/10/22 06:19:58;;;;;;;17.80;12.13;;;;;;;18.27;67.17;100794.66;4972408;28;98888;-67
2022/10/22 06:22:24;;;;;;;21.23;13.27;;;;;;;18.23;67.55;100806.53;4971560;28;97569;-67
2022/10/22 06:24:51;;;;;;;23.27;12.25;;;;;;;18.09;67.97;100803.91;4969997;28;97698;-68
2022/10/22 06:27:18;;;;;;;19.40;12.52;;;;;;;18.02;68.33;100810.59;4975314;28;97912;-68
2022/10/22 06:29:44;;;;;;;21.42;12.35;;;;;;;18.13;68.38;100815.25;4972949;28;98887;-67
2022/10/22 06:32:11;;;;;;;15.63;12.15;;;;;;;18.09;68.61;100822.63;4970553;28;97237;-67
2022/10/22 06:34:38;;;;;;;18.13;11.95;;;;;;;18.35;68.26;100818.22;4975030;28;96967;-66
2022/10/22 06:37:05;;;;;;;18.45;13.10;;;;;;;18.14;68.09;100822.31;4971892;28;99435;-67
2022/10/22 06:39:31;;;;;;;17.38;12.02;;;;;;;18.35;67.72;100820.91;4973424;28;99146;-67
2022/10/22 06:41:57;;;;;;;20.45;13.15;;;;;;;18.31;67.65;100824.75;4970181;28;96835;-67
2022/10/22 06:44:24;;;;;;;15.43;11.82;;;;;;;18.62;66.91;100826.25;4975046;28;96897;-66
2022/10/22 06:46:51;;;;;;;19.65;12.18;;;;;;;18.52;66.75;100834.00;4972132;28;99632;-67
2022/10/22 06:49:19;;;;;;;17.38;11.73;;;;;;;18.52;66.91;100833.13;4972984;28;97591;-67
2022/10/22 06:51:49;;;;;;;17.33;11.90;;;;;;;18.37;67.28;100835.03;4974225;28;96933;-67
2022/10/22 06:54:16;;;;;;;16.02;11.38;;;;;;;18.63;66.67;100831.50;4974894;28;97054;-67
2022/10/22 06:56:42;;;;;;;18.05;12.20;;;;;;;18.40;67.39;100833.97;4970607;28;99163;-67
2022/10/22 06:59:09;;;;;;;16.63;11.45;;;;;;;18.56;67.06;100832.03;4972141;28;101171;-67
2022/10/22 07:01:36;;;;;;;16.15;11.93;;;;;;;18.61;67.00;100832.56;4970628;28;96801;-68
2022/10/22 07:04:04;;;;;;;16.95;11.70;;;;;;;18.41;67.34;100836.53;4969292;28;97834;-68
2022/10/22 07:06:35;;;;;;;17.45;11.63;;;;;;;18.61;66.82;100836.09;4969225;28;99529;-68
2022/10/22 07:09:03;;;;;;;18.45;11.63;;;;;;;18.71;66.56;100841.69;4970564;28;98024;-68
2022/10/22 07:11:37;;;;;;;19.00;11.77;;;;;;;19.05;65.57;100840.22;4969974;28;97993;-68
2022/10/22 07:14:04;;;;;;;17.00;12.25;;;;;;;18.89;65.67;100848.47;4965047;28;98013;-67
2022/10/22 07:16:30;;;;;;;17.23;11.98;;;;;;;19.08;65.15;100840.91;4971520;28;99185;-68
2022/10/22 07:18:56;;;;;;;16.33;11.43;;;;;;;19.05;65.42;100845.59;4969061;28;99295;-67
2022/10/22 07:21:24;;;;;;;18.40;12.50;;;;;;;18.86;65.76;100846.00;4975994;28;96817;-68
2022/10/22 07:23:54;;;;;;;19.17;12.18;;;;;;;18.94;65.70;100850.84;4970786;28;97008;-67
2022/10/22 07:26:23;;;;;;;16.85;11.60;;;;;;;19.06;65.69;100866.06;4969915;28;99362;-68
2022/10/22 07:28:50;;;;;;;17.27;11.48;;;;;;;18.92;65.61;100856.28;4970762;28;98969;-67
2022/10/22 07:31:19;;;;;;;17.90;12.10;;;;;;;19.04;65.48;100867.97;4973614;28;97728;-67
2022/10/22 07:33:45;;;;;;;14.90;10.85;;;;;;;19.22;65.06;100863.19;4959279;28;98147;-67
2022/10/22 07:36:16;;;;;;;18.13;11.32;;;;;;;19.27;64.57;100872.63;4967050;28;98946;-69
2022/10/22 07:38:43;;;;;;;16.33;11.80;;;;;;;19.50;64.62;100879.06;4969200;28;98819;-71
2022/10/22 07:41:12;;;;;;;14.52;11.23;;;;;;;19.25;65.17;100882.56;4970641;28;97090;-74
2022/10/22 07:43:40;;;;;;;16.45;11.45;;;;;;;19.33;65.08;100885.56;4973800;28;97387;-70
2022/10/22 07:46:08;;;;;;;15.50;11.10;;;;;;;19.63;64.47;100889.78;4964418;28;98914;-72
2022/10/22 07:48:35;;;;;;;17.80;11.73;;;;;;;19.33;65.46;100888.25;4965804;28;101516;-70
2022/10/22 07:51:02;;;;;;;17.55;10.93;;;;;;;19.53;64.60;100891.41;4971932;28;97246;-72
2022/10/22 07:53:28;;;;;;;16.83;11.40;;;;;;;19.71;63.79;100901.66;4970615;28;97010;-71
2022/10/22 07:55:57;;;;;;;19.63;10.88;;;;;;;19.70;64.41;100905.31;4970246;28;99252;-70
2022/10/22 07:58:24;;;;;;;17.10;11.63;;;;;;;19.81;63.58;100902.75;4974293;28;99205;-70
2022/10/22 08:00:55;;;;;;;15.32;10.65;;;;;;;19.69;63.79;100906.28;4968148;28;97053;-69
2022/10/22 08:03:22;;;;;;;18.58;10.63;;;;;;;19.25;64.93;100912.03;4964886;28;98849;-70
2022/10/22 08:05:48;;;;;;;13.60;10.70;;;;;;;19.58;64.46;100908.88;4969910;28;99350;-70
2022/10/22 08:08:16;;;;;;;15.07;11.25;;;;;;;19.53;64.64;100905.66;4974903;28;101796;-70
2022/10/22 08:10:42;;;;;;;18.45;12.98;;;;;;;19.59;64.24;100907.91;4965995;28;101887;-70
2022/10/22 08:13:09;;;;;;;16.05;11.50;;;;;;;19.67;64.38;100912.72;4968983;28;97345;-68
2022/10/22 08:15:36;;;;;;;17.45;11.10;;;;;;;19.68;64.24;100906.41;4969420;28;99440;-70
2022/10/22 08:18:04;;;;;;;18.83;11.23;;;;;;;19.31;65.57;100913.44;4971111;28;98937;-71
2022/10/22 08:20:31;;;;;;;17.23;10.57;;;;;;;19.67;63.84;100915.41;4970406;28;97894;-70
2022/10/22 08:22:58;;;;;;;14.35;10.63;;;;;;;19.61;64.42;100907.81;4972656;28;98808;-68
2022/10/22 08:25:25;;;;;;;24.00;11.60;;;;;;;19.76;64.25;100912.91;4974486;28;99126;-68
2022/10/22 08:27:51;;;;;;;18.02;10.50;;;;;;;19.52;64.71;100913.78;4971973;28;98916;-68
2022/10/22 08:30:17;;;;;;;13.85;10.77;;;;;;;19.81;63.89;100916.16;4975037;28;97481;-69
2022/10/22 08:32:44;;;;;;;13.63;10.30;;;;;;;19.63;64.41;100924.63;4973626;28;96912;-69
2022/10/22 08:35:12;;;;;;;24.65;11.27;;;;;;;19.45;65.06;100924.06;4970797;28;99377;-69
2022/10/22 08:37:38;;;;;;;22.75;10.40;;;;;;;19.63;64.76;100929.97;4971463;28;101559;-67
2022/10/22 08:40:06;;;;;;;17.33;10.95;;;;;;;19.62;64.46;100936.31;4969759;28;97750;-68
2022/10/22 08:42:57;;;;;;;15.98;10.85;;;;;;;19.71;64.16;100927.63;4972698;28;97382;-68
2022/10/22 08:45:29;;;;;;;14.63;11.75;;;;;;;19.78;64.52;100937.81;4967267;28;100882;-68
2022/10/22 08:48:09;;;;;;;14.13;10.98;;;;;;;19.68;64.43;100938.56;4977399;28;100171;-68
2022/10/22 08:50:41;;;;;;;15.15;10.50;;;;;;;19.66;64.65;100949.41;4975212;28;96967;-68
2022/10/22 08:53:13;;;;;;;15.98;9.90;;;;;;;19.65;64.79;100938.78;4966866;28;96947;-69
2022/10/22 08:55:40;;;;;;;18.35;10.60;;;;;;;19.70;65.02;100947.34;4968727;28;99051;-69
2022/10/22 08:58:19;;;;;;;15.88;10.70;;;;;;;19.80;64.40;100957.34;4964780;28;99861;-68
2022/10/22 09:00:50;;;;;;;15.27;10.38;;;;;;;19.83;64.09;100948.19;4972271;28;96920;-71
2022/10/22 09:03:30;;;;;;;14.38;10.15;;;;;;;19.70;64.89;100953.56;4965822;28;97989;-68
2022/10/22 09:06:05;;;;;;;16.45;10.77;;;;;;;19.70;65.01;100950.88;4965047;28;99463;-70
2022/10/22 09:08:32;;;;;;;15.52;10.75;;;;;;;19.93;64.59;100943.91;4966621;28;99001;-70
2022/10/22 09:11:03;;;;;;;13.00;10.40;;;;;;;19.84;64.60;100950.78;4968890;28;97637;-71
2022/10/22 09:13:30;;;;;;;14.82;10.38;;;;;;;20.07;63.94;100956.34;4964464;28;98758;-69
2022/10/22 09:16:00;;;;;;;15.68;10.93;;;;;;;19.96;63.72;100959.78;4969215;28;99595;-69
2022/10/22 09:18:40;;;;;;;15.13;10.70;;;;;;;19.89;64.43;100958.50;4964041;28;99539;-68
2022/10/22 09:21:19;;;;;;;14.38;9.60;;;;;;;20.00;64.32;100957.75;4967880;28;99323;-68
2022/10/22 09:23:59;;;;;;;13.50;10.85;;;;;;;19.97;64.17;100956.13;4964523;28;97820;-71
2022/10/22 09:26:26;;;;;;;14.77;10.60;;;;;;;20.12;64.13;100964.91;4967617;28;99408;-69
2022/10/22 09:28:53;;;;;;;12.80;9.85;;;;;;;20.46;63.08;100958.00;4970145;28;99382;-68
2022/10/22 09:31:19;;;;;;;16.80;10.48;;;;;;;20.25;63.25;100960.38;4970008;28;96891;-69
2022/10/22 09:33:47;;;;;;;15.93;10.43;;;;;;;20.43;63.10;100963.56;4969665;28;97745;-68
2022/10/22 09:36:19;;;;;;;17.23;10.43;;;;;;;20.50;62.42;100965.72;4967841;28;99330;-70
2022/10/22 09:38:49;;;;;;;22.20;12.57;;;;;;;20.44;63.03;100973.34;4972586;28;99371;-70
2022/10/22 09:41:16;;;;;;;18.17;11.20;;;;;;;20.60;62.87;100973.94;4973994;28;97002;-70
2022/10/22 09:43:43;;;;;;;15.55;9.98;;;;;;;20.82;61.79;100966.00;4978657;28;96987;-68
2022/10/22 09:46:16;;;;;;;15.88;10.38;;;;;;;20.83;61.85;100973.09;4969301;28;99897;-69
2022/10/22 09:48:48;;;;;;;13.90;9.88;;;;;;;20.99;61.35;100973.69;4962026;28;99486;-69
2022/10/22 09:51:18;;;;;;;16.30;9.95;;;;;;;20.80;61.71;100983.22;4969505;28;96877;-67
2022/10/22 09:53:46;;;;;;;13.02;9.50;;;;;;;20.63;61.80;100984.44;4972113;28;96724;-68
2022/10/22 09:56:21;;;;;;;16.38;10.35;;;;;;;20.68;61.93;100990.34;4967002;28;99347;-68
2022/10/22 09:58:50;;;;;;;14.82;10.60;;;;;;;20.86;nan;100983.63;4966430;28;98901;-69
2022/10/22 10:01:18;;;;;;;15.63;9.85;;;;;;;20.91;60.92;100992.19;4970157;28;96804;-70
2022/10/22 10:03:47;;;;;;;15.65;10.40;;;;;;;20.73;61.71;100982.81;4966886;28;96840;-70
2022/10/22 10:06:20;;;;;;;13.57;10.25;;;;;;;20.75;61.72;100991.59;4968343;28;98972;-69
2022/10/22 10:08:46;;;;;;;17.08;10.55;;;;;;;20.47;62.52;100992.78;4968812;28;98830;-69
2022/10/22 10:11:19;;;;;;;15.45;10.10;;;;;;;20.74;61.81;100987.22;4969881;28;97303;-70
2022/10/22 10:13:57;;;;;;;15.60;9.57;;;;;;;20.63;62.19;100993.38;4963541;28;96865;-69
2022/10/22 10:16:42;;;;;;;18.42;10.80;;;;;;;20.52;62.93;100987.06;4976871;28;98412;-69
2022/10/22 10:19:30;;;;;;;15.73;10.77;;;;;;;20.73;62.34;100993.56;4974663;28;96779;-70
2022/10/22 10:22:10;;;;;;;13.57;10.68;;;;;;;20.79;61.66;100981.50;4968612;28;96892;-70
2022/10/22 10:24:53;;;;;;;15.93;10.98;;;;;;;20.70;62.53;100988.41;4973604;28;98307;-69
2022/10/22 10:27:25;;;;;;;16.42;11.15;;;;;;;20.78;61.81;100987.84;4967521;28;99355;-69
2022/10/22 10:29:58;;;;;;;18.05;10.90;;;;;;;20.92;61.95;100988.53;4975273;28;99072;-70
2022/10/22 10:32:37;;;;;;;17.45;10.68;;;;;;;20.82;62.12;100987.50;4978983;28;96684;-68
2022/10/22 10:35:15;;;;;;;20.42;10.60;;;;;;;21.06;61.02;100990.19;4970189;28;97064;-68
2022/10/22 10:37:52;;;;;;;17.38;11.13;;;;;;;21.15;60.80;100983.25;4971409;28;98900;-69
2022/10/22 10:40:26;;;;;;;15.73;11.10;;;;;;;21.04;60.80;100982.25;4970000;28;99284;-69
2022/10/22 10:42:57;;;;;;;19.23;11.25;;;;;;;21.09;61.14;100989.94;4969244;28;96747;-69
2022/10/22 10:45:30;;;;;;;17.73;11.25;;;;;;;21.16;61.03;100985.00;4964390;28;97300;-68
2022/10/22 10:48:21;;;;;;;16.50;10.85;;;;;;;21.07;61.21;100990.03;4965069;28;99127;-70
2022/10/22 10:50:56;;;;;;;18.58;11.48;;;;;;;20.86;61.98;100986.31;4961833;28;99589;-69
2022/10/22 10:53:35;;;;;;;15.30;10.98;;;;;;;20.98;61.81;100990.75;4965181;28;97084;-69
2022/10/22 10:56:13;;;;;;;18.30;11.75;;;;;;;21.06;62.10;100988.38;4965521;28;97068;-70
2022/10/22 10:58:49;;;;;;;17.20;11.20;;;;;;;21.23;61.50;100992.47;4965282;28;101481;-68
2022/10/22 11:01:24;;;;;;;24.52;11.50;;;;;;;21.92;59.62;100997.91;4973843;28;98979;-69
2022/10/22 11:04:20;;;;;;;18.65;12.20;;;;;;;21.69;60.01;100997.88;4961735;28;98345;-70
2022/10/22 11:06:49;;;;;;;18.83;12.13;;;;;;;21.85;59.34;101001.09;4964196;28;97841;-69
2022/10/22 11:09:24;;;;;;;23.15;12.90;;;;;;;21.63;59.50;101001.03;4968566;28;99551;-69
2022/10/22 11:11:55;;;;;;;22.90;12.57;;;;;;;21.57;59.32;100995.28;4964140;28;98855;-69
2022/10/22 11:14:27;;;;;;;22.33;14.40;;;;;;;20.98;61.37;100988.06;4965545;28;96794;-69
2022/10/22 11:17:00;;;;;;;23.98;14.25;;;;;;;21.29;60.87;100991.16;4965295;28;97466;-69
2022/10/22 11:19:32;;;;;;;21.05;14.65;;;;;;;21.32;60.59;100986.41;4969796;28;98888;-69